createdAt,value
2019-06-08T00:01:14.381Z,14.80
2019-06-08T00:03:41.011Z,14.80
2019-06-08T00:06:07.627Z,14.70
2019-06-08T00:08:34.366Z,14.80
2019-06-08T00:11:01.072Z,14.80
2019-06-08T00:13:28.639Z,14.70
2019-06-08T00:15:55.045Z,14.60
2019-06-08T00:18:21.641Z,14.60
2019-06-08T00:20:48.306Z,14.60
2019-06-08T00:23:15.736Z,14.60
2019-06-08T00:25:42.382Z,14.70
2019-06-08T00:28:09.030Z,14.70
2019-06-08T00:30:35.658Z,14.60
2019-06-08T00:33:02.322Z,14.60
2019-06-08T00:35:28.595Z,14.60
2019-06-08T00:37:55.194Z,14.60
2019-06-08T00:40:21.419Z,14.60
2019-06-08T00:42:48.153Z,14.60
2019-06-08T00:45:15.304Z,14.60
2019-06-08T00:47:48.097Z,14.50
2019-06-08T00:50:11.227Z,14.50
2019-06-08T00:52:37.451Z,14.50
2019-06-08T00:55:05.027Z,14.60
2019-06-08T00:57:31.562Z,14.50
2019-06-08T00:59:58.174Z,14.50
2019-06-08T01:02:24.851Z,14.50
2019-06-08T01:04:51.454Z,14.50
2019-06-08T01:07:18.128Z,14.50
2019-06-08T01:09:44.740Z,14.50
2019-06-08T01:12:11.546Z,14.40
2019-06-08T01:14:38.017Z,14.40
2019-06-08T01:17:04.747Z,14.40
2019-06-08T01:19:31.308Z,14.40
2019-06-08T01:21:57.539Z,14.40
2019-06-08T01:24:23.890Z,14.40
2019-06-08T01:26:50.122Z,14.40
2019-06-08T01:29:16.684Z,14.40
2019-06-08T01:31:42.951Z,14.40
2019-06-08T01:34:09.487Z,14.30
2019-06-08T01:36:35.778Z,14.20
2019-06-08T01:39:02.135Z,14.30
2019-06-08T01:41:29.543Z,14.20
2019-06-08T01:43:56.027Z,14.20
2019-06-08T01:46:22.290Z,14.20
2019-06-08T01:48:48.922Z,14.20
2019-06-08T01:51:15.539Z,14.30
2019-06-08T01:53:42.227Z,14.20
2019-06-08T01:56:08.915Z,14.10
2019-06-08T01:58:35.574Z,14.10
2019-06-08T02:01:02.327Z,14.10
2019-06-08T02:03:28.731Z,14.10
2019-06-08T02:05:55.412Z,14.10
2019-06-08T02:08:22.009Z,14.10
2019-06-08T02:10:48.692Z,14.10
2019-06-08T02:13:15.286Z,14.10
2019-06-08T02:15:42.123Z,14.10
2019-06-08T02:18:08.578Z,14.10
2019-06-08T02:20:35.394Z,14.10
2019-06-08T02:23:02.008Z,14.00
2019-06-08T02:25:29.367Z,14.00
2019-06-08T02:27:56.148Z,14.00
2019-06-08T02:30:28.162Z,14.00
2019-06-08T02:32:55.943Z,13.90
2019-06-08T02:35:22.486Z,14.00
2019-06-08T02:37:49.043Z,14.00
2019-06-08T02:40:15.897Z,13.90
2019-06-08T02:42:42.144Z,14.00
2019-06-08T02:45:09.192Z,13.90
2019-06-08T02:47:36.937Z,13.80
2019-06-08T02:50:07.350Z,13.80
2019-06-08T02:52:36.330Z,13.80
2019-06-08T02:55:05.030Z,13.80
2019-06-08T02:57:33.194Z,13.80
2019-06-08T03:00:00.429Z,13.80
2019-06-08T03:02:29.555Z,13.80
2019-06-08T03:04:56.201Z,13.80
2019-06-08T03:07:23.781Z,13.80
2019-06-08T03:09:53.696Z,13.90
2019-06-08T03:12:21.794Z,13.80
2019-06-08T03:14:52.103Z,13.80
2019-06-08T03:17:18.660Z,13.70
2019-06-08T03:19:45.250Z,13.70
2019-06-08T03:22:11.484Z,13.60
2019-06-08T03:24:38.695Z,13.60
2019-06-08T03:27:05.587Z,13.60
2019-06-08T03:29:32.533Z,13.60
2019-06-08T03:31:59.277Z,13.50
2019-06-08T03:34:25.948Z,13.60
2019-06-08T03:36:56.884Z,13.60
2019-06-08T03:39:20.865Z,13.60
2019-06-08T03:41:47.470Z,13.50
2019-06-08T03:44:14.911Z,13.50
2019-06-08T03:46:43.436Z,13.50
2019-06-08T03:49:09.836Z,13.50
2019-06-08T03:51:40.097Z,13.50
2019-06-08T03:54:04.890Z,13.50
2019-06-08T03:56:31.174Z,13.40
2019-06-08T03:58:57.638Z,13.40
2019-06-08T04:01:24.262Z,13.40
2019-06-08T04:03:50.917Z,13.30
2019-06-08T04:06:17.549Z,13.20
2019-06-08T04:08:45.301Z,13.20
2019-06-08T04:11:12.450Z,13.20
2019-06-08T04:13:39.949Z,13.10
2019-06-08T04:16:06.958Z,13.10
2019-06-08T04:18:33.606Z,13.00
2019-06-08T04:20:59.859Z,13.00
2019-06-08T04:23:26.462Z,13.00
2019-06-08T04:25:52.710Z,13.00
2019-06-08T04:28:19.034Z,13.00
2019-06-08T04:30:47.161Z,13.00
2019-06-08T04:33:13.942Z,13.00
2019-06-08T04:35:42.551Z,13.00
2019-06-08T04:38:08.672Z,12.90
2019-06-08T04:40:35.098Z,12.80
2019-06-08T04:43:02.135Z,12.80
2019-06-08T04:45:28.420Z,12.70
2019-06-08T04:47:54.914Z,12.80
2019-06-08T04:50:24.013Z,12.80
2019-06-08T04:52:49.969Z,12.70
2019-06-08T04:55:16.497Z,12.70
2019-06-08T04:57:43.817Z,12.60
2019-06-08T05:00:13.012Z,12.70
2019-06-08T05:02:41.537Z,12.60
2019-06-08T05:05:08.143Z,12.60
2019-06-08T05:07:34.600Z,12.60
2019-06-08T05:10:01.222Z,12.60
2019-06-08T05:12:27.840Z,12.70
2019-06-08T05:14:54.471Z,12.70
2019-06-08T05:17:21.129Z,12.80
2019-06-08T05:19:47.755Z,12.70
2019-06-08T05:22:14.412Z,12.70
2019-06-08T05:24:41.343Z,12.70
2019-06-08T05:27:07.709Z,12.70
2019-06-08T05:29:34.309Z,12.70
2019-06-08T05:32:00.947Z,12.70
2019-06-08T05:34:27.618Z,12.70
2019-06-08T05:36:54.242Z,12.70
2019-06-08T05:39:20.882Z,12.80
2019-06-08T05:41:47.657Z,12.90
2019-06-08T05:44:14.149Z,13.00
2019-06-08T05:46:41.735Z,13.20
2019-06-08T05:49:08.332Z,13.30
2019-06-08T05:51:34.893Z,13.30
2019-06-08T05:54:03.067Z,13.50
2019-06-08T05:56:29.417Z,13.50
2019-06-08T05:58:56.019Z,13.50
2019-06-08T06:01:22.661Z,13.60
2019-06-08T06:03:51.437Z,13.70
2019-06-08T06:06:17.579Z,13.90
2019-06-08T06:08:44.657Z,13.80
2019-06-08T06:11:11.771Z,13.80
2019-06-08T06:13:38.360Z,13.90
2019-06-08T06:16:05.043Z,14.10
2019-06-08T06:18:31.602Z,14.10
2019-06-08T06:21:10.288Z,14.30
2019-06-08T06:23:26.318Z,14.50
2019-06-08T06:25:52.588Z,14.40
2019-06-08T06:28:18.957Z,14.30
2019-06-08T06:30:46.642Z,14.20
2019-06-08T06:33:13.467Z,14.10
2019-06-08T06:35:40.098Z,14.40
2019-06-08T06:38:06.505Z,14.50
2019-06-08T06:40:32.977Z,14.50
2019-06-08T06:42:59.639Z,14.70
2019-06-08T06:45:46.062Z,14.60
2019-06-08T06:48:12.795Z,14.60
2019-06-08T06:50:39.179Z,14.80
2019-06-08T06:53:05.828Z,15.20
2019-06-08T06:55:32.474Z,16.00
2019-06-08T06:57:59.122Z,16.50
2019-06-08T07:00:30.066Z,16.30
2019-06-08T07:02:57.902Z,16.40
2019-06-08T07:05:24.363Z,16.60
2019-06-08T07:07:52.150Z,16.20
2019-06-08T07:10:18.975Z,15.90
2019-06-08T07:12:46.513Z,15.90
2019-06-08T07:15:16.770Z,16.20
2019-06-08T07:17:43.263Z,17.00
2019-06-08T07:20:09.994Z,17.00
2019-06-08T07:22:36.581Z,16.70
2019-06-08T07:25:04.485Z,16.80
2019-06-08T07:27:31.892Z,16.60
2019-06-08T07:29:59.029Z,16.80
2019-06-08T07:32:25.980Z,17.10
2019-06-08T07:34:53.183Z,16.80
2019-06-08T07:37:20.102Z,16.90
2019-06-08T07:39:47.173Z,17.50
2019-06-08T07:42:14.572Z,17.60
2019-06-08T07:44:41.258Z,17.10
2019-06-08T07:47:07.848Z,16.80
2019-06-08T07:49:34.480Z,16.50
2019-06-08T07:52:09.421Z,16.40
2019-06-08T07:54:29.178Z,16.10
2019-06-08T07:56:56.956Z,16.10
2019-06-08T07:59:23.902Z,15.80
2019-06-08T08:01:50.141Z,15.80
2019-06-08T08:04:16.785Z,15.70
2019-06-08T08:07:02.906Z,15.40
2019-06-08T08:09:29.570Z,15.20
2019-06-08T08:11:57.177Z,15.20
2019-06-08T08:14:23.905Z,15.10
2019-06-08T08:16:51.272Z,15.20
2019-06-08T08:19:17.521Z,15.30
2019-06-08T08:21:44.127Z,15.40
2019-06-08T08:24:10.363Z,15.60
2019-06-08T08:26:39.139Z,15.70
2019-06-08T08:29:05.204Z,15.60
2019-06-08T08:31:31.452Z,15.40
2019-06-08T08:34:03.348Z,15.60
2019-06-08T08:36:28.853Z,15.50
2019-06-08T08:38:54.153Z,15.50
2019-06-08T08:41:20.534Z,15.50
2019-06-08T08:43:48.438Z,15.30
2019-06-08T08:46:17.322Z,15.30
2019-06-08T08:48:43.503Z,15.50
2019-06-08T08:51:10.154Z,15.50
2019-06-08T08:53:37.476Z,15.60
2019-06-08T08:56:03.787Z,15.80
2019-06-08T08:58:30.284Z,15.90
2019-06-08T09:01:00.142Z,15.80
2019-06-08T09:03:30.970Z,15.80
2019-06-08T09:05:54.681Z,15.60
2019-06-08T09:08:23.361Z,15.80
2019-06-08T09:10:51.762Z,15.80
2019-06-08T09:13:18.578Z,15.80
2019-06-08T09:15:47.860Z,15.80
2019-06-08T09:18:14.088Z,15.90
2019-06-08T09:20:40.685Z,16.10
2019-06-08T09:23:15.826Z,16.30
2019-06-08T09:25:37.358Z,16.70
2019-06-08T09:28:04.897Z,16.80
2019-06-08T09:30:31.839Z,16.80
2019-06-08T09:33:00.665Z,16.90
2019-06-08T09:35:27.998Z,17.00
2019-06-08T09:37:54.917Z,17.00
2019-06-08T09:40:21.869Z,16.60
2019-06-08T09:42:50.841Z,16.40
2019-06-08T09:45:18.224Z,16.40
2019-06-08T09:47:44.749Z,16.30
2019-06-08T09:50:12.045Z,16.50
2019-06-08T09:52:41.030Z,16.50
2019-06-08T09:55:09.196Z,16.40
2019-06-08T09:57:38.314Z,16.40
2019-06-08T10:00:15.347Z,16.70
2019-06-08T10:02:35.033Z,16.80
2019-06-08T10:05:04.039Z,16.70
2019-06-08T10:07:31.389Z,16.70
2019-06-08T10:10:00.322Z,16.90
2019-06-08T10:12:28.068Z,16.60
2019-06-08T10:14:54.558Z,16.60
2019-06-08T10:17:21.749Z,16.70
2019-06-08T10:19:48.054Z,16.90
2019-06-08T10:22:14.483Z,17.20
2019-06-08T10:24:41.527Z,17.30
2019-06-08T10:27:11.232Z,17.40
2019-06-08T10:29:38.318Z,17.10
2019-06-08T10:32:08.675Z,17.20
2019-06-08T10:34:34.813Z,18.20
2019-06-08T10:37:06.447Z,19.00
2019-06-08T10:39:29.601Z,20.40
2019-06-08T10:41:59.308Z,21.50
2019-06-08T10:44:24.517Z,21.00
2019-06-08T10:46:50.910Z,19.80
2019-06-08T10:49:18.718Z,18.90
2019-06-08T10:51:45.383Z,17.90
2019-06-08T10:54:11.646Z,17.60
2019-06-08T10:56:38.531Z,17.70
2019-06-08T10:59:09.958Z,17.80
2019-06-08T11:01:33.799Z,17.80
2019-06-08T11:04:01.557Z,17.70
2019-06-08T11:06:28.311Z,17.90
2019-06-08T11:08:54.560Z,18.10
2019-06-08T11:11:21.388Z,18.30
2019-06-08T11:13:50.073Z,18.50
2019-06-08T11:16:17.959Z,18.50
2019-06-08T11:18:44.408Z,18.50
2019-06-08T11:21:12.827Z,18.50
2019-06-08T11:23:41.678Z,19.40
2019-06-08T11:26:13.824Z,20.10
2019-06-08T11:28:38.158Z,21.30
2019-06-08T11:31:04.152Z,22.20
2019-06-08T11:33:30.570Z,21.80
2019-06-08T11:35:58.192Z,21.90
2019-06-08T11:38:24.951Z,21.70
2019-06-08T11:40:51.577Z,21.60
2019-06-08T11:43:18.421Z,20.70
2019-06-08T11:45:44.915Z,19.40
2019-06-08T11:48:11.164Z,19.00
2019-06-08T11:50:42.239Z,18.30
2019-06-08T11:53:13.501Z,17.40
2019-06-08T11:55:38.498Z,16.40
2019-06-08T11:58:05.080Z,16.10
2019-06-08T12:00:54.261Z,17.40
2019-06-08T12:03:20.680Z,17.80
2019-06-08T12:05:47.739Z,18.00
2019-06-08T12:08:17.588Z,18.10
2019-06-08T12:10:44.530Z,17.90
2019-06-08T12:13:12.862Z,17.70
2019-06-08T12:15:40.171Z,19.10
2019-06-08T12:18:10.665Z,20.70
2019-06-08T12:20:37.686Z,22.20
2019-06-08T12:23:04.284Z,21.80
2019-06-08T12:25:30.932Z,20.50
2019-06-08T12:27:58.519Z,19.80
2019-06-08T12:30:26.500Z,20.40
2019-06-08T12:32:53.644Z,21.50
2019-06-08T12:35:20.144Z,21.40
2019-06-08T12:37:48.361Z,20.50
2019-06-08T12:40:16.907Z,20.20
2019-06-08T12:42:43.150Z,19.70
2019-06-08T12:45:09.591Z,19.40
2019-06-08T12:47:38.011Z,19.70
2019-06-08T12:50:04.887Z,20.10
2019-06-08T12:52:31.147Z,21.00
2019-06-08T12:55:06.093Z,22.10
2019-06-08T12:57:25.472Z,23.20
2019-06-08T12:59:51.698Z,21.90
2019-06-08T13:02:22.459Z,20.80
2019-06-08T13:04:48.026Z,19.60
2019-06-08T13:07:14.908Z,18.20
2019-06-08T13:09:41.259Z,17.20
2019-06-08T13:12:07.998Z,16.60
2019-06-08T13:14:35.552Z,16.30
2019-06-08T13:17:01.783Z,16.30
2019-06-08T13:19:28.031Z,16.50
2019-06-08T13:21:54.283Z,16.80
2019-06-08T13:24:20.535Z,16.80
2019-06-08T13:26:50.376Z,17.00
2019-06-08T13:29:15.565Z,17.30
2019-06-08T13:31:41.866Z,17.80
2019-06-08T13:34:10.659Z,17.70
2019-06-08T13:36:38.683Z,17.70
2019-06-08T13:39:05.035Z,17.30
2019-06-08T13:41:31.300Z,17.00
2019-06-08T13:43:58.082Z,17.00
2019-06-08T13:46:24.592Z,16.90
2019-06-08T13:48:50.830Z,17.10
2019-06-08T13:51:20.690Z,17.30
2019-06-08T13:53:47.847Z,17.40
2019-06-08T13:56:13.203Z,17.30
2019-06-08T13:58:39.507Z,17.40
2019-06-08T14:01:05.844Z,17.50
2019-06-08T14:03:32.402Z,17.80
2019-06-08T14:05:58.635Z,18.00
2019-06-08T14:08:29.973Z,17.70
2019-06-08T14:10:53.734Z,17.60
2019-06-08T14:13:26.553Z,17.70
2019-06-08T14:15:48.698Z,17.50
2019-06-08T14:18:20.877Z,17.40
2019-06-08T14:20:43.428Z,17.70
2019-06-08T14:23:09.691Z,17.80
2019-06-08T14:25:47.908Z,17.60
2019-06-08T14:28:04.362Z,17.70
2019-06-08T14:30:32.893Z,17.70
2019-06-08T14:32:59.275Z,17.70
2019-06-08T14:35:27.147Z,17.70
2019-06-08T14:37:54.239Z,17.90
2019-06-08T14:40:21.394Z,18.30
2019-06-08T14:42:48.479Z,18.50
2019-06-08T14:45:17.767Z,18.40
2019-06-08T14:47:44.863Z,18.30
2019-06-08T14:50:11.507Z,18.10
2019-06-08T14:52:38.284Z,18.10
2019-06-08T14:55:04.808Z,18.10
2019-06-08T14:57:31.173Z,18.40
2019-06-08T14:59:59.975Z,18.50
2019-06-08T15:02:28.161Z,18.30
2019-06-08T15:04:53.831Z,18.10
2019-06-08T15:07:23.230Z,18.00
2019-06-08T15:09:48.602Z,18.00
2019-06-08T15:12:15.052Z,18.20
2019-06-08T15:14:41.700Z,18.40
2019-06-08T15:17:08.709Z,18.40
2019-06-08T15:19:35.279Z,18.40
2019-06-08T15:22:02.397Z,18.60
2019-06-08T15:24:29.736Z,18.50
2019-06-08T15:26:58.309Z,18.60
2019-06-08T15:29:27.855Z,18.90
2019-06-08T15:31:53.379Z,19.40
2019-06-08T15:34:21.137Z,19.60
2019-06-08T15:36:48.272Z,19.70
2019-06-08T15:39:14.636Z,19.70
2019-06-08T15:41:41.213Z,19.30
2019-06-08T15:44:07.823Z,18.80
2019-06-08T15:46:34.518Z,18.50
2019-06-08T15:49:01.062Z,18.00
2019-06-08T15:51:29.878Z,17.60
2019-06-08T15:53:57.946Z,16.80
2019-06-08T15:56:40.816Z,16.40
2019-06-08T15:58:52.648Z,16.40
2019-06-08T16:01:18.929Z,16.20
2019-06-08T16:03:45.180Z,16.40
2019-06-08T16:06:11.456Z,16.80
2019-06-08T16:08:38.070Z,17.00
2019-06-08T16:11:04.505Z,16.80
2019-06-08T16:13:30.732Z,17.00
2019-06-08T16:15:56.991Z,17.00
2019-06-08T16:18:23.339Z,17.40
2019-06-08T16:20:49.637Z,17.70
2019-06-08T16:23:15.880Z,17.80
2019-06-08T16:25:42.140Z,18.00
2019-06-08T16:28:08.395Z,18.30
2019-06-08T16:30:35.108Z,18.20
2019-06-08T16:33:01.403Z,18.10
2019-06-08T16:35:28.093Z,17.70
2019-06-08T16:37:55.840Z,17.80
2019-06-08T16:40:22.166Z,17.70
2019-06-08T16:42:48.518Z,17.80
2019-06-08T16:45:15.903Z,17.90
2019-06-08T16:47:43.735Z,18.10
2019-06-08T16:50:23.425Z,18.00
2019-06-08T16:52:38.992Z,17.90
2019-06-08T16:55:06.282Z,18.10
2019-06-08T16:57:35.076Z,18.40
2019-06-08T17:00:29.491Z,18.70
2019-06-08T17:02:30.712Z,18.80
2019-06-08T17:04:57.498Z,18.90
2019-06-08T17:07:24.179Z,18.70
2019-06-08T17:09:50.399Z,18.50
2019-06-08T17:12:17.018Z,18.30
2019-06-08T17:14:43.683Z,18.10
2019-06-08T17:17:10.305Z,18.10
2019-06-08T17:19:38.487Z,18.00
2019-06-08T17:22:05.237Z,18.00
2019-06-08T17:24:32.527Z,17.80
2019-06-08T17:26:59.321Z,17.80
2019-06-08T17:29:25.941Z,17.80
2019-06-08T17:31:52.607Z,17.50
2019-06-08T17:34:20.640Z,17.40
2019-06-08T17:36:47.341Z,17.30
2019-06-08T17:39:15.526Z,17.20
2019-06-08T17:41:42.569Z,17.30
2019-06-08T17:44:08.996Z,17.30
2019-06-08T17:46:36.539Z,17.30
2019-06-08T17:49:03.328Z,17.30
2019-06-08T17:51:29.579Z,17.30
2019-06-08T17:53:56.076Z,17.30
2019-06-08T17:56:22.672Z,17.30
2019-06-08T17:58:48.949Z,17.20
2019-06-08T18:01:15.279Z,17.10
2019-06-08T18:03:42.672Z,17.10
2019-06-08T18:06:09.616Z,17.20
2019-06-08T18:08:39.169Z,17.10
2019-06-08T18:11:04.446Z,17.20
2019-06-08T18:13:30.868Z,17.10
2019-06-08T18:15:57.699Z,17.00
2019-06-08T18:18:24.471Z,17.00
2019-06-08T18:20:52.213Z,17.10
2019-06-08T18:23:18.951Z,17.00
2019-06-08T18:25:48.038Z,16.80
2019-06-08T18:28:14.279Z,16.80
2019-06-08T18:30:43.180Z,16.80
2019-06-08T18:33:09.223Z,16.80
2019-06-08T18:35:39.411Z,16.90
2019-06-08T18:38:04.171Z,16.80
2019-06-08T18:40:30.395Z,16.80
2019-06-08T18:42:57.665Z,16.80
2019-06-08T18:45:24.422Z,16.90
2019-06-08T18:47:51.089Z,16.80
2019-06-08T18:50:17.851Z,16.80
2019-06-08T18:52:46.232Z,16.80
2019-06-08T18:55:13.153Z,16.60
2019-06-08T18:57:41.051Z,16.60
2019-06-08T19:00:11.580Z,16.50
2019-06-08T19:02:39.941Z,16.60
2019-06-08T19:05:05.367Z,16.50
2019-06-08T19:07:32.971Z,16.40
2019-06-08T19:10:02.155Z,16.30
2019-06-08T19:12:28.527Z,16.20
2019-06-08T19:14:54.883Z,16.20
2019-06-08T19:17:21.437Z,16.30
2019-06-08T19:19:51.972Z,16.30
2019-06-08T19:22:18.784Z,16.10
2019-06-08T19:24:45.410Z,16.10
2019-06-08T19:27:12.883Z,16.00
2019-06-08T19:29:42.005Z,16.00
2019-06-08T19:32:07.811Z,15.90
2019-06-08T19:34:34.411Z,15.80
2019-06-08T19:37:01.037Z,15.70
2019-06-08T19:39:28.333Z,15.70
2019-06-08T19:41:57.229Z,15.60
2019-06-08T19:44:23.911Z,15.60
2019-06-08T19:46:52.444Z,15.50
2019-06-08T19:49:18.338Z,15.30
2019-06-08T19:51:47.703Z,15.30
2019-06-08T19:54:13.259Z,15.30
2019-06-08T19:56:40.644Z,15.30
2019-06-08T19:59:08.536Z,15.20
2019-06-08T20:01:35.216Z,15.30
2019-06-08T20:04:01.874Z,15.20
2019-06-08T20:06:28.485Z,15.10
2019-06-08T20:08:57.315Z,14.80
2019-06-08T20:11:22.795Z,14.70
2019-06-08T20:13:50.421Z,14.60
2019-06-08T20:16:17.514Z,14.50
2019-06-08T20:18:44.166Z,14.50
2019-06-08T20:21:10.793Z,14.50
2019-06-08T20:23:38.232Z,14.50
2019-06-08T20:26:05.374Z,14.50
2019-06-08T20:28:31.951Z,14.50
2019-06-08T20:30:58.773Z,14.40
2019-06-08T20:33:27.263Z,14.50
2019-06-08T20:35:53.917Z,14.40
2019-06-08T20:38:34.023Z,14.40
2019-06-08T20:40:48.631Z,14.40
2019-06-08T20:43:17.272Z,14.30
2019-06-08T20:45:44.092Z,14.20
2019-06-08T20:48:10.766Z,14.20
2019-06-08T20:50:37.790Z,14.10
2019-06-08T20:53:04.863Z,14.10
2019-06-08T20:55:31.540Z,14.10
2019-06-08T20:57:58.146Z,13.90
2019-06-08T21:00:24.778Z,13.90
2019-06-08T21:02:51.961Z,14.00
2019-06-08T21:05:20.506Z,13.90
2019-06-08T21:07:49.519Z,13.90
2019-06-08T21:10:17.329Z,14.00
2019-06-08T21:12:45.172Z,13.90
2019-06-08T21:15:11.682Z,14.00
2019-06-08T21:17:38.539Z,14.00
2019-06-08T21:20:08.288Z,13.80
2019-06-08T21:22:34.351Z,13.60
2019-06-08T21:25:01.048Z,13.50
2019-06-08T21:27:27.830Z,13.50
2019-06-08T21:30:02.228Z,13.30
2019-06-08T21:32:22.684Z,13.30
2019-06-08T21:34:51.756Z,13.40
2019-06-08T21:37:18.617Z,13.40
2019-06-08T21:39:44.951Z,13.40
2019-06-08T21:42:11.190Z,13.50
2019-06-08T21:44:37.466Z,13.40
2019-06-08T21:47:03.695Z,13.40
2019-06-08T21:49:31.094Z,13.50
2019-06-08T21:52:00.723Z,13.50
2019-06-08T21:54:27.175Z,13.60
2019-06-08T21:56:54.655Z,13.60
2019-06-08T21:59:21.419Z,13.60
2019-06-08T22:01:51.462Z,13.70
2019-06-08T22:04:18.517Z,13.80
2019-06-08T22:06:44.878Z,13.60
2019-06-08T22:09:11.139Z,13.70
2019-06-08T22:11:37.664Z,13.60
2019-06-08T22:14:04.237Z,13.40
2019-06-08T22:16:30.477Z,13.20
2019-06-08T22:18:59.791Z,13.10
2019-06-08T22:21:27.808Z,13.00
2019-06-08T22:23:53.433Z,13.00
2019-06-08T22:26:20.099Z,13.00
2019-06-08T22:28:48.239Z,13.00
2019-06-08T22:31:17.101Z,13.00
2019-06-08T22:33:43.710Z,13.10
2019-06-08T22:36:10.313Z,13.00
2019-06-08T22:38:37.355Z,13.00
2019-06-08T22:41:04.002Z,13.00
2019-06-08T22:43:30.676Z,12.90
2019-06-08T22:45:59.126Z,12.90
2019-06-08T22:48:27.617Z,13.00
2019-06-08T22:50:55.585Z,12.90
2019-06-08T22:53:22.097Z,12.90
2019-06-08T22:55:48.772Z,13.00
2019-06-08T22:58:15.374Z,12.90
2019-06-08T23:00:52.179Z,12.90
2019-06-08T23:03:10.326Z,12.80
2019-06-08T23:05:36.969Z,12.70
2019-06-08T23:08:05.139Z,12.70
2019-06-08T23:10:31.852Z,12.60
2019-06-08T23:13:00.743Z,12.60
2019-06-08T23:15:26.795Z,12.40
2019-06-08T23:17:54.762Z,12.60
2019-06-08T23:20:21.720Z,12.70
2019-06-08T23:22:48.355Z,12.70
2019-06-08T23:25:14.958Z,12.70
2019-06-08T23:27:41.637Z,12.70
2019-06-08T23:30:10.194Z,12.70
2019-06-08T23:32:38.621Z,12.90
2019-06-08T23:35:08.870Z,12.90
2019-06-08T23:37:37.270Z,13.00
2019-06-08T23:40:05.509Z,13.00
2019-06-08T23:42:31.751Z,13.00
2019-06-08T23:44:59.489Z,13.20
2019-06-08T23:47:27.423Z,13.20
2019-06-08T23:49:54.069Z,13.30
2019-06-08T23:52:20.742Z,13.20
2019-06-08T23:54:47.754Z,13.20
2019-06-08T23:57:14.367Z,13.00
2019-06-08T23:59:41.052Z,13.00
